Prattville, Alabama
Current Conditions -  °F | °C
As of 12:15 AM on Sunday 21 Dec 2014 (Local Time) from K1A9 Reporting Station
Overcast Overcast  
Wind Chill: 49°   Ceiling: 3600
Heat Index: 49°   Visibility: 10mi
Dew Point: 46°   Wind: 3mph
Humidity: 89%   Direction: 20°NNE
Pressure: 30.16"   Gusts: NA
Location:  32.46°N, 86.45°W
Report Text: K1A9 210615Z AUTO 02003KT 10SM OVC036 09/08 A3016 RMK AO2 T00940077
Loading
Personal Weather Stations






























Interactive Weather Map New forecast layout! Learn more

10-Day Weather Forecast

Advertisements
Track Severe Weather on mobile